createdAt,value
2022-09-10T00:01:31.320Z,2.97
2022-09-10T00:03:59.697Z,3.47
2022-09-10T00:06:28.484Z,2.73
2022-09-10T00:08:57.768Z,2.77
2022-09-10T00:11:26.754Z,3.20
2022-09-10T00:13:57.388Z,2.70
2022-09-10T00:16:27.845Z,2.40
2022-09-10T00:18:57.393Z,2.43
2022-09-10T00:21:25.702Z,2.63
2022-09-10T00:23:54.344Z,2.83
2022-09-10T00:26:27.323Z,2.20
2022-09-10T00:28:58.933Z,2.10
2022-09-10T00:31:30.185Z,3.30
2022-09-10T00:33:59.577Z,2.30
2022-09-10T00:36:29.747Z,2.67
2022-09-10T00:39:01.088Z,2.47
2022-09-10T00:41:30.172Z,2.80
2022-09-10T00:43:59.832Z,2.80
2022-09-10T00:46:35.145Z,3.50
2022-09-10T00:49:07.283Z,3.93
2022-09-10T00:51:36.998Z,3.53
2022-09-10T00:54:06.465Z,3.00
2022-09-10T00:56:35.678Z,3.40
2022-09-10T00:59:06.317Z,4.47
2022-09-10T01:01:38.880Z,3.60
2022-09-10T01:04:11.012Z,3.03
2022-09-10T01:06:40.707Z,3.20
2022-09-10T01:09:10.458Z,3.50
2022-09-10T01:12:05.286Z,3.43
2022-09-10T01:15:03.870Z,2.10
2022-09-10T01:17:41.362Z,2.23
2022-09-10T01:20:47.462Z,2.77
2022-09-10T01:24:03.180Z,1.97
2022-09-10T01:27:02.231Z,2.50
2022-09-10T01:29:39.442Z,2.20
2022-09-10T01:32:15.407Z,1.90
2022-09-10T01:34:51.740Z,1.93
2022-09-10T01:37:24.213Z,2.40
2022-09-10T01:39:54.621Z,2.10
2022-09-10T01:42:26.143Z,2.40
2022-09-10T01:44:58.211Z,2.20
2022-09-10T01:47:37.384Z,2.40
2022-09-10T01:50:17.117Z,1.97
2022-09-10T01:52:57.613Z,1.93
2022-09-10T01:55:38.274Z,2.20
2022-09-10T01:58:17.003Z,1.50
2022-09-10T02:00:55.337Z,1.50
2022-09-10T02:03:27.729Z,1.73
2022-09-10T02:05:57.537Z,1.43
2022-09-10T02:08:30.427Z,1.63
2022-09-10T02:11:00.407Z,1.53
2022-09-10T02:13:31.818Z,1.63
2022-09-10T02:16:03.291Z,1.30
2022-09-10T02:18:34.298Z,1.83
2022-09-10T02:21:04.156Z,1.20
2022-09-10T02:23:41.581Z,1.50
2022-09-10T02:26:10.131Z,1.97
2022-09-10T02:28:38.885Z,2.00
2022-09-10T02:31:08.382Z,1.23
2022-09-10T02:33:36.303Z,1.60
2022-09-10T02:36:05.391Z,1.40
2022-09-10T02:38:33.256Z,1.90
2022-09-10T02:41:01.431Z,2.03
2022-09-10T02:43:29.347Z,1.57
2022-09-10T02:45:58.581Z,1.53
2022-09-10T02:48:31.071Z,1.80
2022-09-10T02:50:59.681Z,1.77
2022-09-10T02:53:27.547Z,1.67
2022-09-10T02:55:55.875Z,2.60
2022-09-10T02:58:23.691Z,1.60
2022-09-10T03:00:52.052Z,1.97
2022-09-10T03:03:19.945Z,1.90
2022-09-10T03:05:49.985Z,1.93
2022-09-10T03:08:17.844Z,1.70
2022-09-10T03:10:46.346Z,1.93
2022-09-10T03:13:14.332Z,1.60
2022-09-10T03:15:43.626Z,2.10
2022-09-10T03:18:11.576Z,1.63
2022-09-10T03:20:39.664Z,2.50
2022-09-10T03:23:09.062Z,1.80
2022-09-10T03:25:37.069Z,1.70
2022-09-10T03:28:04.936Z,1.60
2022-09-10T03:30:33.332Z,2.10
2022-09-10T03:33:01.063Z,1.80
2022-09-10T03:35:29.076Z,2.23
2022-09-10T03:37:56.750Z,2.00
2022-09-10T03:40:25.865Z,2.37
2022-09-10T03:42:53.836Z,1.80
2022-09-10T03:45:21.674Z,2.13
2022-09-10T03:47:51.956Z,2.70
2022-09-10T03:50:20.637Z,2.03
2022-09-10T03:52:48.294Z,2.93
2022-09-10T03:55:16.543Z,3.07
2022-09-10T03:57:45.637Z,2.60
2022-09-10T04:00:14.397Z,2.30
2022-09-10T04:02:42.267Z,2.30
2022-09-10T04:05:10.200Z,2.33
2022-09-10T04:07:38.204Z,2.27
2022-09-10T04:10:07.058Z,2.70
2022-09-10T04:12:35.065Z,2.77
2022-09-10T04:15:04.243Z,2.07
2022-09-10T04:17:32.006Z,2.53
2022-09-10T04:19:59.789Z,3.10
2022-09-10T04:22:28.525Z,2.63
2022-09-10T04:24:56.613Z,2.70
2022-09-10T04:27:24.604Z,3.20
2022-09-10T04:29:52.261Z,3.10
2022-09-10T04:32:21.788Z,3.40
2022-09-10T04:34:49.413Z,3.00
2022-09-10T04:37:19.343Z,3.27
2022-09-10T04:39:47.287Z,3.07
2022-09-10T04:42:20.609Z,3.60
2022-09-10T04:44:49.124Z,3.20
2022-09-10T04:47:17.850Z,3.47
2022-09-10T04:49:46.889Z,3.23
2022-09-10T04:52:17.111Z,3.20
2022-09-10T04:54:44.987Z,3.37
2022-09-10T04:57:13.079Z,3.37
2022-09-10T04:59:40.717Z,3.30
2022-09-10T05:02:09.572Z,3.03
2022-09-10T05:04:37.886Z,3.70
2022-09-10T05:07:07.411Z,4.10
2022-09-10T05:09:35.079Z,3.20
2022-09-10T05:12:11.326Z,3.23
2022-09-10T05:14:48.457Z,3.53
2022-09-10T05:17:23.956Z,2.90
2022-09-10T05:20:07.472Z,3.20
2022-09-10T05:22:40.480Z,3.40
2022-09-10T05:25:09.553Z,2.90
2022-09-10T05:27:37.624Z,2.80
2022-09-10T05:30:06.187Z,3.27
2022-09-10T05:32:35.133Z,3.77
2022-09-10T05:35:02.860Z,2.80
2022-09-10T05:37:31.754Z,2.27
2022-09-10T05:40:00.883Z,2.23
2022-09-10T05:42:28.560Z,2.23
2022-09-10T05:44:56.589Z,2.93
2022-09-10T05:47:24.257Z,1.80
2022-09-10T05:49:52.235Z,1.70
2022-09-10T05:52:19.973Z,2.17
2022-09-10T05:54:47.761Z,1.77
2022-09-10T05:57:16.788Z,1.90
2022-09-10T05:59:45.174Z,1.60
2022-09-10T06:02:21.781Z,1.60
2022-09-10T06:04:51.911Z,1.80
2022-09-10T06:07:19.683Z,1.57
2022-09-10T06:09:47.392Z,1.60
2022-09-10T06:12:17.228Z,1.70
2022-09-10T06:14:45.017Z,1.40
2022-09-10T06:17:12.913Z,2.03
2022-09-10T06:19:41.250Z,1.90
2022-09-10T06:22:11.125Z,1.33
2022-09-10T06:24:39.663Z,1.40
2022-09-10T06:27:13.345Z,1.30
2022-09-10T06:29:42.657Z,1.93
2022-09-10T06:32:10.309Z,1.50
2022-09-10T06:34:38.332Z,1.23
2022-09-10T06:37:06.120Z,2.00
2022-09-10T06:39:34.308Z,1.20
2022-09-10T06:42:02.055Z,1.33
2022-09-10T06:44:30.675Z,1.37
2022-09-10T06:47:45.911Z,1.07
2022-09-10T06:49:49.140Z,1.10
2022-09-10T06:52:16.816Z,1.07
2022-09-10T06:54:44.516Z,1.40
2022-09-10T06:57:14.105Z,1.00
2022-09-10T06:59:44.038Z,1.13
2022-09-10T07:02:15.304Z,1.37
2022-09-10T07:04:43.346Z,1.10
2022-09-10T07:07:11.317Z,1.00
2022-09-10T07:09:39.256Z,1.27
2022-09-10T07:12:07.452Z,1.23
2022-09-10T07:14:35.161Z,1.10
2022-09-10T07:17:03.169Z,1.30
2022-09-10T07:19:33.288Z,1.27
2022-09-10T07:22:01.463Z,1.33
2022-09-10T07:24:29.093Z,1.20
2022-09-10T07:26:57.297Z,1.57
2022-09-10T07:29:25.386Z,1.10
2022-09-10T07:31:53.861Z,1.10
2022-09-10T07:34:23.943Z,1.10
2022-09-10T07:36:53.567Z,1.00
2022-09-10T07:39:25.519Z,1.40
2022-09-10T07:41:54.509Z,1.70
2022-09-10T07:44:22.141Z,1.00
2022-09-10T07:46:50.123Z,1.57
2022-09-10T07:49:18.132Z,0.90
2022-09-10T07:51:46.139Z,1.17
2022-09-10T07:54:17.282Z,1.13
2022-09-10T07:56:45.499Z,1.30
2022-09-10T07:59:14.285Z,1.60
2022-09-10T08:01:42.527Z,1.30
2022-09-10T08:04:10.458Z,1.47
2022-09-10T08:06:38.941Z,1.30
2022-09-10T08:09:07.338Z,1.70
2022-09-10T08:11:36.563Z,1.60
2022-09-10T08:14:05.069Z,1.20
2022-09-10T08:16:33.028Z,1.60
2022-09-10T08:19:01.103Z,2.00
2022-09-10T08:21:30.116Z,1.40
2022-09-10T08:23:58.159Z,1.63
2022-09-10T08:26:27.380Z,1.27
2022-09-10T08:28:58.385Z,2.03
2022-09-10T08:31:26.959Z,1.30
2022-09-10T08:33:57.138Z,1.80
2022-09-10T08:36:25.672Z,1.50
2022-09-10T08:38:59.823Z,1.30
2022-09-10T08:41:41.901Z,1.60
2022-09-10T08:44:17.607Z,2.87
2022-09-10T08:46:50.421Z,2.10
2022-09-10T08:49:24.145Z,1.60
2022-09-10T08:51:58.100Z,1.60
2022-09-10T08:54:29.802Z,1.77
2022-09-10T08:57:00.447Z,1.20
2022-09-10T08:59:34.766Z,1.63
2022-09-10T09:02:31.565Z,1.40
2022-09-10T09:05:11.317Z,1.30
2022-09-10T09:07:39.319Z,1.17
2022-09-10T09:10:19.598Z,1.20
2022-09-10T09:12:58.321Z,1.20
2022-09-10T09:15:35.310Z,1.30
2022-09-10T09:18:18.171Z,1.03
2022-09-10T09:20:47.498Z,1.50
2022-09-10T09:23:22.426Z,1.67
2022-09-10T09:25:52.273Z,1.50
2022-09-10T09:28:37.343Z,1.40
2022-09-10T09:31:12.859Z,1.30
2022-09-10T09:33:42.816Z,1.57
2022-09-10T09:36:17.900Z,1.00
2022-09-10T09:38:49.154Z,0.80
2022-09-10T09:41:25.457Z,0.90
2022-09-10T09:43:57.131Z,0.90
2022-09-10T09:46:26.155Z,0.80
2022-09-10T09:48:59.178Z,0.80
2022-09-10T09:51:30.647Z,0.80
2022-09-10T09:54:34.579Z,0.87
2022-09-10T09:56:52.091Z,1.00
2022-09-10T09:59:27.623Z,0.83
2022-09-10T10:02:01.459Z,0.90
2022-09-10T10:04:31.517Z,0.90
2022-09-10T10:07:00.971Z,1.00
2022-09-10T10:09:30.140Z,0.90
2022-09-10T10:11:59.376Z,1.30
2022-09-10T10:14:45.221Z,1.00
2022-09-10T10:17:30.275Z,1.10
2022-09-10T10:20:00.372Z,0.70
2022-09-10T10:22:31.921Z,0.90
2022-09-10T10:25:01.325Z,1.50
2022-09-10T10:27:32.791Z,1.10
2022-09-10T10:30:04.105Z,1.47
2022-09-10T10:32:44.071Z,2.10
2022-09-10T10:35:23.489Z,1.33
2022-09-10T10:38:08.874Z,1.53
2022-09-10T10:40:43.339Z,1.97
2022-09-10T10:43:22.862Z,1.50
2022-09-10T10:46:02.032Z,1.50
2022-09-10T10:48:43.134Z,1.33
2022-09-10T10:51:20.861Z,1.60
2022-09-10T10:54:07.468Z,1.43
2022-09-10T10:56:41.819Z,1.30
2022-09-10T10:59:29.783Z,2.13
2022-09-10T11:02:07.837Z,1.37
2022-09-10T11:04:44.796Z,1.00
2022-09-10T11:07:18.257Z,1.07
2022-09-10T11:09:52.467Z,1.60
2022-09-10T11:12:29.092Z,0.83
2022-09-10T11:15:01.839Z,1.03
2022-09-10T11:17:35.680Z,1.70
2022-09-10T11:20:27.942Z,1.37
2022-09-10T11:23:04.336Z,1.40
2022-09-10T11:25:37.025Z,1.30
2022-09-10T11:28:13.112Z,1.60
2022-09-10T11:30:46.217Z,1.40
2022-09-10T11:33:19.035Z,2.00
2022-09-10T11:35:56.202Z,1.43
2022-09-10T11:38:29.966Z,1.30
2022-09-10T11:41:08.887Z,1.13
2022-09-10T11:43:43.440Z,1.70
2022-09-10T11:46:16.772Z,1.20
2022-09-10T11:48:49.988Z,1.43
2022-09-10T11:51:24.838Z,1.30
2022-09-10T11:53:53.437Z,1.93
2022-09-10T11:56:32.291Z,1.10
2022-09-10T11:59:16.736Z,1.10
2022-09-10T12:02:18.960Z,1.30
2022-09-10T12:04:54.395Z,1.40
2022-09-10T12:07:40.760Z,1.63
2022-09-10T12:10:18.294Z,2.13
2022-09-10T12:12:50.173Z,1.80
2022-09-10T12:15:21.747Z,2.30
2022-09-10T12:17:55.613Z,1.80
2022-09-10T12:20:29.500Z,2.37
2022-09-10T12:22:59.730Z,1.70
2022-09-10T12:25:33.882Z,1.70
2022-09-10T12:28:05.873Z,1.90
2022-09-10T12:31:03.729Z,2.03
2022-09-10T12:34:07.194Z,2.70
2022-09-10T12:37:12.500Z,2.23
2022-09-10T12:39:42.249Z,2.60
2022-09-10T12:42:31.921Z,1.70
2022-09-10T12:45:00.097Z,2.20
2022-09-10T12:47:44.914Z,1.53
2022-09-10T12:50:31.036Z,1.47
2022-09-10T12:53:26.676Z,1.83
2022-09-10T12:56:02.973Z,1.40
2022-09-10T12:58:47.334Z,1.90
2022-09-10T13:01:28.182Z,1.80
2022-09-10T13:04:00.355Z,1.30
2022-09-10T13:06:40.943Z,1.87
2022-09-10T13:09:19.778Z,1.93
2022-09-10T13:11:53.416Z,2.20
2022-09-10T13:14:25.865Z,2.37
2022-09-10T13:16:55.635Z,1.60
2022-09-10T13:19:49.738Z,1.60
2022-09-10T13:23:01.605Z,1.80
2022-09-10T13:25:37.265Z,1.70
2022-09-10T13:28:45.042Z,2.00
2022-09-10T13:31:22.066Z,1.80
2022-09-10T13:34:04.811Z,1.73
2022-09-10T13:36:38.733Z,2.03
2022-09-10T13:39:24.287Z,2.10
2022-09-10T13:42:21.413Z,2.20
2022-09-10T13:45:04.705Z,3.27
2022-09-10T13:47:36.603Z,2.10
2022-09-10T13:50:13.614Z,2.27
2022-09-10T13:52:44.475Z,2.33
2022-09-10T13:55:20.784Z,4.00
2022-09-10T13:57:51.107Z,2.43
2022-09-10T14:00:26.288Z,2.23
2022-09-10T14:02:56.843Z,1.87
2022-09-10T14:05:31.733Z,1.77
2022-09-10T14:08:02.921Z,2.03
2022-09-10T14:10:32.219Z,1.80
2022-09-10T14:13:00.631Z,1.87
2022-09-10T14:15:38.969Z,1.93
2022-09-10T14:18:07.009Z,3.17
2022-09-10T14:20:36.918Z,2.60
2022-09-10T14:23:07.934Z,3.97
2022-09-10T14:25:38.594Z,2.43
2022-09-10T14:28:20.158Z,1.80
2022-09-10T14:30:50.666Z,1.60
2022-09-10T14:33:25.276Z,2.10
2022-09-10T14:35:53.785Z,1.83
2022-09-10T14:38:24.271Z,1.80
2022-09-10T14:40:58.192Z,2.50
2022-09-10T14:43:32.522Z,1.97
2022-09-10T14:46:02.813Z,2.07
2022-09-10T14:48:37.021Z,1.70
2022-09-10T14:51:12.724Z,1.70
2022-09-10T14:53:41.969Z,1.73
2022-09-10T14:56:22.890Z,2.23
2022-09-10T14:58:59.243Z,1.63
2022-09-10T15:01:29.610Z,2.97
2022-09-10T15:03:57.761Z,3.47
2022-09-10T15:06:27.018Z,2.63
2022-09-10T15:08:56.739Z,2.70
2022-09-10T15:11:27.349Z,3.03
2022-09-10T15:13:58.749Z,2.80
2022-09-10T15:16:28.358Z,4.33
2022-09-10T15:18:56.500Z,2.83
2022-09-10T15:21:24.230Z,2.40
2022-09-10T15:23:52.061Z,2.90
2022-09-10T15:26:19.817Z,4.13
2022-09-10T15:28:47.516Z,3.33
2022-09-10T15:31:17.144Z,3.50
2022-09-10T15:33:46.497Z,2.97
2022-09-10T15:36:14.114Z,3.70
2022-09-10T15:38:41.798Z,3.83
2022-09-10T15:41:12.910Z,3.50
2022-09-10T15:43:43.871Z,4.70
2022-09-10T15:46:13.226Z,3.10
2022-09-10T15:48:41.444Z,2.60
2022-09-10T15:51:17.663Z,2.10
2022-09-10T15:53:46.071Z,1.70
2022-09-10T15:56:14.453Z,1.33
2022-09-10T15:58:43.223Z,1.87
2022-09-10T16:01:13.280Z,1.30
2022-09-10T16:03:47.146Z,1.40
2022-09-10T16:06:18.371Z,1.90
2022-09-10T16:08:49.578Z,1.30
2022-09-10T16:11:18.120Z,1.63
2022-09-10T16:13:46.200Z,2.20
2022-09-10T16:16:19.282Z,1.80
2022-09-10T16:18:47.355Z,1.70
2022-09-10T16:21:18.574Z,2.47
2022-09-10T16:23:48.149Z,1.90
2022-09-10T16:26:18.127Z,1.70
2022-09-10T16:28:49.922Z,1.83
2022-09-10T16:31:19.022Z,1.87
2022-09-10T16:33:47.880Z,1.53
2022-09-10T16:36:19.683Z,1.73
2022-09-10T16:38:52.207Z,1.50
2022-09-10T16:41:20.488Z,1.80
2022-09-10T16:43:48.162Z,1.80
2022-09-10T16:46:17.599Z,1.80
2022-09-10T16:48:46.568Z,2.07
2022-09-10T16:51:16.538Z,2.10
2022-09-10T16:53:49.036Z,1.90
2022-09-10T16:56:18.153Z,2.43
2022-09-10T16:58:48.516Z,2.07
2022-09-10T17:01:16.934Z,2.00
2022-09-10T17:03:49.772Z,2.47
2022-09-10T17:06:19.631Z,2.00
2022-09-10T17:08:48.987Z,2.30
2022-09-10T17:11:19.925Z,2.47
2022-09-10T17:13:48.105Z,2.63
2022-09-10T17:16:17.630Z,3.10
2022-09-10T17:18:45.425Z,3.27
2022-09-10T17:21:14.371Z,2.53
2022-09-10T17:23:42.638Z,2.40
2022-09-10T17:26:11.716Z,2.80
2022-09-10T17:28:40.694Z,3.07
2022-09-10T17:31:08.546Z,3.77
2022-09-10T17:33:36.827Z,3.80
2022-09-10T17:36:05.338Z,3.33
2022-09-10T17:38:35.692Z,3.90
2022-09-10T17:41:06.730Z,4.00
2022-09-10T17:43:38.659Z,3.57
2022-09-10T17:46:08.153Z,3.93
2022-09-10T17:48:38.208Z,4.13
2022-09-10T17:51:06.700Z,5.37
2022-09-10T17:53:35.549Z,4.50
2022-09-10T17:56:04.848Z,3.80
2022-09-10T17:58:33.951Z,3.80
2022-09-10T18:01:06.646Z,4.10
2022-09-10T18:03:35.145Z,3.63
2022-09-10T18:06:07.190Z,3.53
2022-09-10T18:08:34.969Z,4.17
2022-09-10T18:11:06.233Z,4.23
2022-09-10T18:13:34.782Z,4.20
2022-09-10T18:16:07.818Z,4.43
2022-09-10T18:18:35.997Z,4.27
2022-09-10T18:21:15.246Z,3.80
2022-09-10T18:23:44.189Z,4.87
2022-09-10T18:26:14.365Z,4.50
2022-09-10T18:28:42.852Z,4.60
2022-09-10T18:31:12.567Z,3.70
2022-09-10T18:33:42.286Z,5.40
2022-09-10T18:36:14.884Z,5.20
2022-09-10T18:38:43.561Z,4.90
2022-09-10T18:41:19.864Z,4.87
2022-09-10T18:43:48.650Z,5.20
2022-09-10T18:46:20.331Z,4.50
2022-09-10T18:48:48.833Z,5.07
2022-09-10T18:51:18.744Z,5.70
2022-09-10T18:53:47.364Z,3.63
2022-09-10T18:56:18.016Z,3.30
2022-09-10T18:58:50.170Z,2.97
2022-09-10T19:01:20.062Z,2.83
2022-09-10T19:03:49.983Z,2.20
2022-09-10T19:06:19.960Z,2.63
2022-09-10T19:08:49.471Z,3.40
2022-09-10T19:11:18.984Z,3.83
2022-09-10T19:13:50.966Z,2.27
2022-09-10T19:16:21.363Z,2.50
2022-09-10T19:18:52.328Z,3.07
2022-09-10T19:21:21.165Z,2.40
2022-09-10T19:23:49.729Z,2.80
2022-09-10T19:26:17.944Z,3.23
2022-09-10T19:28:48.046Z,2.60
2022-09-10T19:31:17.191Z,3.00
2022-09-10T19:33:48.015Z,2.90
2022-09-10T19:36:18.776Z,3.20
2022-09-10T19:38:47.363Z,3.37
2022-09-10T19:41:18.841Z,3.57
2022-09-10T19:43:48.038Z,2.40
2022-09-10T19:46:16.940Z,3.07
2022-09-10T19:48:47.359Z,3.60
2022-09-10T19:51:17.439Z,3.53
2022-09-10T19:53:45.414Z,2.90
2022-09-10T19:56:19.746Z,2.60
2022-09-10T19:58:50.957Z,2.73
2022-09-10T20:01:21.109Z,3.50
2022-09-10T20:03:51.038Z,5.67
2022-09-10T20:06:21.176Z,3.30
2022-09-10T20:08:50.726Z,3.00
2022-09-10T20:11:20.740Z,3.30
2022-09-10T20:13:49.093Z,3.33
2022-09-10T20:16:18.264Z,3.03
2022-09-10T20:18:46.605Z,3.43
2022-09-10T20:21:18.141Z,3.90
2022-09-10T20:23:48.508Z,3.13
2022-09-10T20:26:18.571Z,3.03
2022-09-10T20:28:46.477Z,2.97
2022-09-10T20:31:14.368Z,3.13
2022-09-10T20:33:43.403Z,2.93
2022-09-10T20:36:13.008Z,3.67
2022-09-10T20:38:43.221Z,3.80
2022-09-10T20:41:12.833Z,3.20
2022-09-10T20:43:40.795Z,2.00
2022-09-10T20:46:15.931Z,2.00
2022-09-10T20:48:48.830Z,2.13
2022-09-10T20:51:18.104Z,1.30
2022-09-10T20:53:48.099Z,1.70
2022-09-10T20:56:18.791Z,2.00
2022-09-10T20:58:47.828Z,2.13
2022-09-10T21:01:18.829Z,2.27
2022-09-10T21:03:47.830Z,1.37
2022-09-10T21:06:19.598Z,2.07
2022-09-10T21:08:49.532Z,2.00
2022-09-10T21:11:19.245Z,1.47
2022-09-10T21:13:48.517Z,1.37
2022-09-10T21:16:18.084Z,0.90
2022-09-10T21:18:52.253Z,3.80
2022-09-10T21:21:25.616Z,1.70
2022-09-10T21:23:56.662Z,1.47
2022-09-10T21:26:26.684Z,1.53
2022-09-10T21:28:57.021Z,1.10
2022-09-10T21:31:25.703Z,1.50
2022-09-10T21:33:53.987Z,1.53
2022-09-10T21:36:22.609Z,1.50
2022-09-10T21:38:51.908Z,1.70
2022-09-10T21:41:26.410Z,1.20
2022-09-10T21:43:54.369Z,1.00
2022-09-10T21:46:22.067Z,1.27
2022-09-10T21:48:49.727Z,1.43
2022-09-10T21:51:20.443Z,1.23
2022-09-10T21:53:48.997Z,1.47
2022-09-10T21:56:18.501Z,1.50
2022-09-10T21:58:48.102Z,1.10
2022-09-10T22:01:18.515Z,1.10
2022-09-10T22:03:47.608Z,1.27
2022-09-10T22:06:18.872Z,1.37
2022-09-10T22:08:49.799Z,1.10
2022-09-10T22:11:20.164Z,1.70
2022-09-10T22:13:54.374Z,1.60
2022-09-10T22:16:23.675Z,1.23
2022-09-10T22:18:52.490Z,1.70
2022-09-10T22:21:20.797Z,1.50
2022-09-10T22:23:51.420Z,1.40
2022-09-10T22:26:21.452Z,1.20
2022-09-10T22:28:54.301Z,0.90
2022-09-10T22:31:24.354Z,1.67
2022-09-10T22:33:54.737Z,1.80
2022-09-10T22:36:24.907Z,1.90
2022-09-10T22:38:54.099Z,1.80
2022-09-10T22:41:23.425Z,1.47
2022-09-10T22:43:51.091Z,1.80
2022-09-10T22:46:20.565Z,1.87
2022-09-10T22:48:48.344Z,2.00
2022-09-10T22:51:18.220Z,2.13
2022-09-10T22:53:46.991Z,2.07
2022-09-10T22:56:17.939Z,1.80
2022-09-10T22:58:46.058Z,2.10
2022-09-10T23:01:15.926Z,2.20
2022-09-10T23:03:45.871Z,2.00
2022-09-10T23:06:15.299Z,1.70
2022-09-10T23:08:44.607Z,2.10
2022-09-10T23:11:15.565Z,2.67
2022-09-10T23:13:44.223Z,2.53
2022-09-10T23:16:14.157Z,2.90
2022-09-10T23:18:43.785Z,2.30
2022-09-10T23:21:13.832Z,1.90
2022-09-10T23:23:46.530Z,2.50
2022-09-10T23:26:14.972Z,2.20
2022-09-10T23:28:43.096Z,2.67
2022-09-10T23:31:14.226Z,2.33
2022-09-10T23:33:43.284Z,2.20
2022-09-10T23:36:14.553Z,2.47
2022-09-10T23:38:43.753Z,2.60
2022-09-10T23:41:13.133Z,2.83
2022-09-10T23:43:41.335Z,2.70
2022-09-10T23:46:10.620Z,2.90
2022-09-10T23:48:39.226Z,2.77
2022-09-10T23:51:07.800Z,2.50
2022-09-10T23:53:37.190Z,2.07
2022-09-10T23:56:05.283Z,2.80
2022-09-10T23:58:33.785Z,2.67
